.
WxDataArchive / Data Records for 2011-03-06
2011-03-05 March 2011 2011-03-07

Data Records for Sunday, 06 March 2011

Time	Temp	Chill	HIndex	Humid	Dewpt	 Wind 	HiWind	WindDir	Rain 	Barom 
-----	----	-----	------	-----	-----	------	------	-------	-----	----- 
00:00	31.3	31.3	31.3	92	29.3	0	2	22	0.00	30.118 
00:05	31.3	31.3	31.3	92	29.3	0	1	22	0.00	30.118 
00:10	31.3	31.3	31.3	92	29.3	0	1	22	0.00	30.118 
00:15	31.3	31.3	31.3	92	29.3	0	2	338	0.00	30.130 
00:20	31.3	31.3	31.3	92	29.3	0	1	338	0.00	30.130 
00:25	31.2	31.2	31.2	92	29.2	0	1	315	0.00	30.130 
00:30	31.0	31.0	31.0	91	28.7	1	3	315	0.00	30.129 
00:35	31.0	31.0	31.0	91	28.7	0	2	338	0.00	30.129 
00:40	31.0	31.0	31.0	91	28.7	0	2	338	0.00	30.129 
00:45	31.0	31.0	31.0	91	28.7	0	1	338	0.00	30.147 
00:50	31.0	31.0	31.0	90	28.4	0	1	338	0.00	30.147 
00:55	31.0	31.0	31.0	90	28.4	0	1	338	0.00	30.147 
01:00	31.0	31.0	31.0	90	28.4	0	1	338	0.00	30.142 
01:05	31.0	31.0	31.0	90	28.4	0	1	338	0.00	30.142 
01:10	31.0	31.0	31.0	90	28.4	0	1	338	0.00	30.142 
01:15	31.0	31.0	31.0	90	28.4	0	1	338	0.00	30.146 
01:20	31.0	31.0	31.0	90	28.4	1	3	338	0.00	30.146 
01:25	30.9	30.9	30.9	90	28.3	1	2	292	0.00	30.146 
01:30	30.7	30.7	30.7	90	28.1	0	2	0	0.00	30.154 
01:35	30.6	30.6	30.6	90	28.0	1	3	22	0.00	30.154 
01:40	30.6	30.6	30.6	89	27.8	0	2	248	0.00	30.154 
01:45	30.6	30.6	30.6	89	27.8	0	2	315	0.00	30.151 
01:50	30.4	30.4	30.4	89	27.6	1	2	315	0.00	30.151 
01:55	30.4	30.4	30.4	89	27.6	1	3	0	0.00	30.151 
02:00	30.4	30.4	30.4	89	27.6	1	4	338	0.00	30.158 
02:05	30.3	30.3	30.3	89	27.5	1	3	22	0.00	30.158 
02:10	30.3	30.3	30.3	88	27.2	1	4	292	0.00	30.158 
02:15	30.1	30.1	30.1	88	27.0	0	2	0	0.00	30.163 
02:20	30.1	30.1	30.1	88	27.0	1	3	0	0.00	30.163 
02:25	30.0	30.0	30.0	88	26.9	0	2	292	0.00	30.163 
02:30	30.0	30.0	30.0	88	26.9	0	3	338	0.00	30.167 
02:35	29.8	29.8	29.8	88	26.7	0	2	292	0.00	30.167 
02:40	29.8	29.8	29.8	88	26.7	1	3	292	0.00	30.167 
02:45	29.8	29.8	29.8	88	26.7	1	4	22	0.00	30.166 
02:50	29.8	29.8	29.8	88	26.7	0	3	45	0.00	30.166 
02:55	29.7	29.7	29.7	88	26.6	1	4	0	0.00	30.166 
03:00	29.7	29.7	29.7	88	26.6	0	2	338	0.00	30.173 
03:05	29.7	29.7	29.7	87	26.3	0	2	338	0.00	30.173 
03:10	29.5	29.5	29.5	87	26.1	1	3	270	0.00	30.173 
03:15	29.5	29.5	29.5	87	26.1	0	2	338	0.00	30.179 
03:20	29.4	29.4	29.4	87	26.0	0	2	338	0.00	30.179 
03:25	29.4	29.4	29.4	87	26.0	0	3	338	0.00	30.179 
03:30	29.4	29.4	29.4	87	26.0	0	3	22	0.00	30.181 
03:35	29.3	29.3	29.3	87	25.9	0	2	22	0.00	30.181 
03:40	29.3	29.3	29.3	87	25.9	0	2	270	0.00	30.181 
03:45	29.1	29.1	29.1	87	25.7	0	3	315	0.00	30.194 
03:50	29.1	29.1	29.1	87	25.7	0	2	45	0.00	30.194 
03:55	29.1	29.1	29.1	87	25.7	0	2	45	0.00	30.194 
04:00	29.0	29.0	29.0	87	25.6	0	2	45	0.00	30.183 
04:05	29.0	29.0	29.0	87	25.6	0	1	45	0.00	30.183 
04:10	29.0	29.0	29.0	87	25.6	1	3	248	0.00	30.183 
04:15	28.8	28.8	28.8	87	25.4	0	3	315	0.00	30.189 
04:20	28.8	28.8	28.8	87	25.4	1	2	22	0.00	30.189 
04:25	28.5	28.5	28.5	87	25.1	0	2	270	0.00	30.189 
04:30	28.4	28.4	28.4	86	24.8	0	2	0	0.00	30.187 
04:35	28.2	28.2	28.2	85	24.3	1	3	45	0.00	30.187 
04:40	27.9	27.9	27.9	84	23.7	1	2	22	0.00	30.187 
04:45	27.9	27.9	27.9	84	23.7	1	3	338	0.00	30.201 
04:50	27.8	27.8	27.8	83	23.3	1	3	22	0.00	30.201 
04:55	27.6	27.6	27.6	83	23.1	1	2	0	0.00	30.201 
05:00	27.5	27.5	27.5	82	22.7	1	3	68	0.00	30.208 
05:05	27.3	27.3	27.3	82	22.5	1	4	0	0.00	30.208 
05:10	27.3	27.3	27.3	81	22.3	0	2	0	0.00	30.208 
05:15	27.2	27.2	27.2	81	22.2	0	2	0	0.00	30.206 
05:20	27.0	27.0	27.0	81	22.0	0	2	22	0.00	30.206 
05:25	27.0	27.0	27.0	82	22.3	0	3	112	0.00	30.206 
05:30	26.9	26.9	26.9	81	21.9	1	2	0	0.00	30.212 
05:35	26.7	26.7	26.7	81	21.7	0	1	315	0.00	30.212 
05:40	26.6	26.6	26.6	81	21.6	0	1	0	0.00	30.212 
05:45	26.6	26.6	26.6	81	21.6	0	1	0	0.00	30.215 
05:50	26.6	26.6	26.6	81	21.6	0	1	0	0.00	30.215 
05:55	26.6	26.6	26.6	82	21.9	0	1	0	0.00	30.215 
06:00	26.6	26.6	26.6	82	21.9	0	2	22	0.00	30.228 
06:05	26.6	26.6	26.6	82	21.9	0	3	270	0.00	30.228 
06:10	26.4	26.4	26.4	82	21.7	0	2	338	0.00	30.228 
06:15	26.3	26.3	26.3	81	21.3	0	2	338	0.00	30.228 
06:20	26.1	26.1	26.1	81	21.1	0	2	338	0.00	30.228 
06:25	26.1	26.1	26.1	81	21.1	0	1	338	0.00	30.228 
06:30	26.0	26.0	26.0	81	21.0	0	2	338	0.00	30.237 
06:35	25.8	25.8	25.8	81	20.8	0	2	338	0.00	30.237 
06:40	25.6	25.6	25.6	81	20.6	0	2	22	0.00	30.237 
06:45	25.4	25.4	25.4	81	20.4	0	2	338	0.00	30.241 
06:50	25.4	25.4	25.4	81	20.4	0	2	0	0.00	30.241 
06:55	25.3	25.3	25.3	81	20.3	0	2	0	0.00	30.241 
07:00	25.1	25.1	25.1	81	20.1	0	2	0	0.00	30.241 
07:05	25.0	25.0	25.0	81	20.0	0	4	0	0.00	30.241 
07:10	24.8	24.8	24.8	81	19.8	1	3	0	0.00	30.241 
07:15	24.8	24.8	24.8	81	19.8	0	2	0	0.00	30.241 
07:20	24.8	24.8	24.8	81	19.8	0	4	248	0.00	30.241 
07:25	24.7	24.7	24.7	81	19.7	0	2	45	0.00	30.241 
07:30	24.7	24.7	24.7	81	19.7	0	1	45	0.00	30.246 
07:35	24.7	24.7	24.7	81	19.7	0	3	45	0.00	30.246 
07:40	24.7	24.7	24.7	81	19.7	0	1	45	0.00	30.246 
07:45	24.5	24.5	24.5	81	19.5	0	1	45	0.00	30.251 
07:50	24.5	24.5	24.5	81	19.5	0	2	112	0.00	30.251 
07:55	24.4	24.4	24.4	81	19.4	1	2	292	0.00	30.251 
08:00	24.2	24.2	24.2	80	18.9	0	2	22	0.00	30.248 
08:05	24.1	24.1	24.1	79	18.5	1	3	0	0.00	30.248 
08:10	24.1	24.1	24.1	79	18.5	0	1	0	0.00	30.248 
08:15	24.1	24.1	24.1	79	18.5	1	4	45	0.00	30.252 
08:20	24.1	24.1	24.1	78	18.3	1	3	45	0.00	30.252 
08:25	24.2	24.2	24.2	78	18.3	0	2	22	0.00	30.252 
08:30	24.2	24.2	24.2	77	18.1	0	3	22	0.00	30.257 
08:35	24.5	24.5	24.5	77	18.3	0	1	0	0.00	30.257 
08:40	24.8	24.8	24.8	77	18.6	0	2	0	0.00	30.257 
08:45	25.0	25.0	25.0	77	18.8	0	3	0	0.00	30.267 
08:50	25.0	25.0	25.0	76	18.5	0	2	22	0.00	30.267 
08:55	25.0	25.0	25.0	76	18.5	0	4	22	0.00	30.267 
09:00	24.8	24.8	24.8	76	18.3	1	3	22	0.00	30.267 
09:05	25.0	25.0	25.0	76	18.5	0	2	22	0.00	30.267 
09:10	25.3	25.3	25.3	76	18.8	0	2	22	0.00	30.267 
09:15	25.7	25.7	25.7	76	19.2	0	2	45	0.00	30.277 
09:20	26.0	26.0	26.0	75	19.2	0	3	45	0.00	30.277 
09:25	26.1	26.1	26.1	75	19.3	0	2	45	0.00	30.277 
09:30	26.4	26.4	26.4	74	19.3	1	3	135	0.00	30.282 
09:35	26.3	26.3	26.3	73	18.8	0	2	22	0.01	30.282 
09:40	26.6	26.6	26.6	74	19.5	1	3	45	0.00	30.282 
09:45	26.3	26.3	26.3	73	18.8	0	2	45	0.00	30.281 
09:50	26.3	26.3	26.3	74	19.2	0	3	45	0.01	30.281 
09:55	26.6	26.6	26.6	74	19.5	1	3	45	0.00	30.281 
10:00	26.9	26.9	26.9	73	19.4	1	3	112	0.00	30.275 
10:05	27.0	27.0	27.0	73	19.5	1	3	45	0.00	30.275 
10:10	27.0	27.0	27.0	73	19.5	0	3	45	0.00	30.275 
10:15	26.9	26.9	26.9	73	19.4	1	3	90	0.01	30.277 
10:20	26.7	26.7	26.7	73	19.2	0	2	90	0.00	30.277 
10:25	26.7	26.7	26.7	74	19.5	0	2	0	0.00	30.277 
10:30	27.0	27.0	27.0	75	20.2	0	3	0	0.00	30.282 
10:35	27.2	27.2	27.2	75	20.3	1	3	270	0.00	30.282 
10:40	27.2	27.2	27.2	73	19.7	1	2	22	0.00	30.282 
10:45	27.3	27.3	27.3	74	20.1	1	3	22	0.00	30.282 
10:50	27.5	27.5	27.5	74	20.3	1	3	90	0.01	30.282 
10:55	27.8	27.8	27.8	74	20.6	1	5	112	0.00	30.282 
11:00	27.8	27.8	27.8	74	20.6	0	3	22	0.00	30.282 
11:05	28.2	28.2	28.2	75	21.3	1	3	22	0.00	30.282 
11:10	28.4	28.4	28.4	73	20.9	1	4	315	0.00	30.282 
11:15	28.2	28.2	28.2	74	21.0	0	2	112	0.00	30.292 
11:20	28.4	28.4	28.4	75	21.5	1	2	270	0.00	30.292 
11:25	28.7	28.7	28.7	74	21.5	1	3	22	0.00	30.292 
11:30	29.1	29.1	29.1	75	22.2	2	6	112	0.00	30.287 
11:35	29.7	29.7	29.7	76	23.1	1	3	112	0.00	30.287 
11:40	29.7	29.7	29.7	73	22.1	1	2	68	0.00	30.287 
11:45	29.7	29.7	29.7	75	22.8	1	4	68	0.00	30.289 
11:50	29.8	29.8	29.8	75	22.9	1	4	90	0.00	30.289 
11:55	29.3	29.3	29.3	73	21.7	1	3	0	0.00	30.289 
12:00	29.0	29.0	29.0	73	21.4	0	2	0	0.00	30.292 
12:05	29.1	29.1	29.1	74	21.9	1	3	0	0.00	30.292 
12:10	29.4	29.4	29.4	77	23.1	0	2	0	0.00	30.292 
12:15	30.0	30.0	30.0	75	23.1	1	4	112	0.00	30.281 
12:20	30.4	30.4	30.4	76	23.8	1	4	68	0.01	30.281 
12:25	30.6	30.6	30.6	75	23.6	1	3	68	0.00	30.281 
12:30	30.7	30.7	30.7	74	23.4	1	5	0	0.00	30.275 
12:35	30.9	30.9	30.9	74	23.6	1	4	68	0.00	30.275 
12:40	31.5	31.5	31.5	76	24.8	1	3	45	0.00	30.275 
12:45	31.8	31.8	31.8	74	24.5	1	5	112	0.00	30.276 
12:50	31.8	31.8	31.8	73	24.1	1	4	158	0.00	30.276 
12:55	31.6	31.6	31.6	74	24.3	1	4	22	0.00	30.276 
13:00	31.8	31.8	31.8	74	24.5	0	3	180	0.00	30.268 
13:05	31.9	31.9	31.9	74	24.6	1	4	45	0.00	30.268 
13:10	32.2	32.2	32.2	75	25.2	1	3	45	0.00	30.268 
13:15	32.1	32.1	32.1	73	24.4	1	4	45	0.00	30.265 
13:20	31.9	31.9	31.9	73	24.2	1	3	22	0.00	30.265 
13:25	32.2	32.2	32.2	75	25.2	0	4	90	0.00	30.265 
13:30	32.7	32.7	32.7	74	25.3	1	4	68	0.00	30.261 
13:35	32.7	32.7	32.7	74	25.3	0	2	68	0.00	30.261 
13:40	32.9	32.9	32.9	74	25.5	1	3	68	0.00	30.261 
13:45	32.8	32.8	32.8	73	25.1	1	3	90	0.00	30.250 
13:50	33.1	33.1	33.1	73	25.4	1	3	112	0.00	30.250 
13:55	33.2	33.2	33.2	73	25.5	1	4	315	0.00	30.250 
14:00	33.4	33.4	33.4	72	25.4	2	5	112	0.00	30.246 
14:05	33.7	33.7	33.7	73	26.0	0	3	90	0.00	30.246 
14:10	33.7	33.7	33.7	72	25.7	1	2	338	0.00	30.246 
14:15	34.0	34.0	34.0	73	26.3	1	4	22	0.00	30.242 
14:20	34.0	34.0	34.0	72	25.9	2	4	45	0.00	30.242 
14:25	34.3	34.3	34.3	73	26.6	1	4	90	0.00	30.242 
14:30	34.4	34.4	34.4	72	26.3	1	4	112	0.00	30.241 
14:35	34.6	34.6	34.6	71	26.2	1	4	112	0.00	30.241 
14:40	34.9	34.9	34.9	73	27.1	0	4	135	0.00	30.241 
14:45	35.0	35.0	35.0	71	26.6	1	2	68	0.00	30.242 
14:50	34.4	34.4	34.4	70	25.6	1	4	22	0.00	30.242 
14:55	34.6	34.6	34.6	71	26.2	1	3	22	0.00	30.242 
15:00	35.2	35.2	35.2	72	27.1	1	2	248	0.00	30.245 
15:05	35.3	35.3	35.3	71	26.9	1	3	0	0.00	30.245 
15:10	35.3	35.3	35.3	71	26.9	0	2	112	0.00	30.245 
15:15	34.9	34.9	34.9	69	25.8	1	3	90	0.00	30.245 
15:20	34.6	34.6	34.6	69	25.5	1	3	68	0.00	30.245 
15:25	34.6	34.6	34.6	71	26.2	0	3	68	0.00	30.245 
15:30	35.0	35.0	35.0	71	26.6	1	5	68	0.00	30.247 
15:35	35.0	35.0	35.0	71	26.6	0	3	112	0.00	30.247 
15:40	35.0	35.0	35.0	70	26.2	0	3	0	0.00	30.247 
15:45	34.9	34.9	34.9	70	26.1	0	3	0	0.00	30.250 
15:50	35.2	35.2	35.2	71	26.8	1	6	45	0.00	30.250 
15:55	35.3	35.3	35.3	71	26.9	0	3	0	0.00	30.250 
16:00	35.2	35.2	35.2	70	26.4	0	3	135	0.00	30.253 
16:05	35.0	35.0	35.0	70	26.2	0	3	90	0.00	30.253 
16:10	35.0	35.0	35.0	70	26.2	0	2	90	0.00	30.253 
16:15	35.2	35.2	35.2	72	27.1	1	4	90	0.00	30.256 
16:20	35.3	35.3	35.3	71	26.9	1	2	68	0.00	30.256 
16:25	35.5	35.5	35.5	72	27.4	0	1	68	0.00	30.256 
16:30	35.3	35.3	35.3	71	26.9	0	1	68	0.00	30.256 
16:35	35.2	35.2	35.2	71	26.8	0	3	90	0.00	30.256 
16:40	35.0	35.0	35.0	71	26.6	0	1	90	0.00	30.256 
16:45	35.0	35.0	35.0	71	26.6	0	3	90	0.00	30.256 
16:50	34.9	34.9	34.9	72	26.8	1	6	90	0.00	30.256 
16:55	34.7	34.7	34.7	72	26.6	1	7	90	0.00	30.256 
17:00	34.4	34.4	34.4	72	26.3	1	3	90	0.00	30.258 
17:05	34.4	34.4	34.4	73	26.7	1	4	90	0.00	30.258 
17:10	34.4	34.4	34.4	73	26.7	1	2	45	0.00	30.258 
17:15	34.3	34.3	34.3	73	26.6	0	2	90	0.00	30.258 
17:20	34.3	34.3	34.3	73	26.6	0	3	90	0.00	30.258 
17:25	34.1	34.1	34.1	72	26.0	1	6	112	0.00	30.258 
17:30	34.0	34.0	34.0	73	26.3	1	3	90	0.00	30.250 
17:35	33.8	33.8	33.8	72	25.7	1	5	90	0.00	30.250 
17:40	33.7	33.7	33.7	73	26.0	1	5	90	0.00	30.250 
17:45	33.7	33.7	33.7	73	26.0	0	2	90	0.00	30.249 
17:50	33.5	33.5	33.5	73	25.8	0	3	90	0.00	30.249 
17:55	33.4	33.4	33.4	73	25.7	0	1	68	0.00	30.249 
18:00	33.2	33.2	33.2	73	25.5	1	3	112	0.00	30.249 
18:05	33.1	33.1	33.1	73	25.4	0	1	112	0.00	30.249 
18:10	33.1	33.1	33.1	73	25.4	0	1	112	0.00	30.249 
18:15	32.9	32.9	32.9	74	25.5	0	1	112	0.00	30.251 
18:20	32.9	32.9	32.9	74	25.5	0	1	112	0.00	30.251 
18:25	32.8	32.8	32.8	74	25.4	0	2	112	0.00	30.251 
18:30	32.8	32.8	32.8	73	25.1	1	3	112	0.00	30.253 
18:35	32.7	32.7	32.7	74	25.3	1	4	112	0.00	30.253 
18:40	32.5	32.5	32.5	74	25.2	0	1	112	0.00	30.253 
18:45	32.5	32.5	32.5	74	25.2	0	1	112	0.00	30.257 
18:50	32.4	32.4	32.4	74	25.1	0	2	112	0.00	30.257 
18:55	32.2	32.2	32.2	74	24.9	0	1	112	0.00	30.257 
19:00	32.1	32.1	32.1	74	24.8	0	2	112	0.00	30.266 
19:05	32.1	32.1	32.1	74	24.8	1	3	45	0.00	30.266 
19:10	32.1	32.1	32.1	74	24.8	0	1	45	0.00	30.266 
19:15	31.9	31.9	31.9	75	24.9	0	1	45	0.00	30.268 
19:20	31.9	31.9	31.9	75	24.9	0	1	45	0.00	30.268 
19:25	31.9	31.9	31.9	75	24.9	0	0	---	0.00	30.268 
19:30	31.9	31.9	31.9	75	24.9	0	1	45	0.00	30.268 
19:35	31.9	31.9	31.9	75	24.9	0	2	45	0.00	30.268 
19:40	31.8	31.8	31.8	75	24.8	0	1	45	0.00	30.268 
19:45	31.8	31.8	31.8	75	24.8	0	0	---	0.00	30.271 
19:50	31.6	31.6	31.6	75	24.6	0	0	---	0.00	30.271 
19:55	31.6	31.6	31.6	75	24.6	0	2	45	0.00	30.271 
20:00	31.5	31.5	31.5	75	24.5	0	1	45	0.00	30.276 
20:05	31.5	31.5	31.5	75	24.5	0	0	---	0.00	30.276 
20:10	31.5	31.5	31.5	76	24.8	0	1	45	0.00	30.276 
20:15	31.3	31.3	31.3	76	24.6	0	3	45	0.00	30.276 
20:20	31.2	31.2	31.2	76	24.5	0	2	45	0.00	30.276 
20:25	31.2	31.2	31.2	76	24.5	0	2	45	0.00	30.276 
20:30	31.0	31.0	31.0	76	24.3	0	3	45	0.00	30.273 
20:35	30.9	30.9	30.9	76	24.2	0	1	45	0.00	30.273 
20:40	30.9	30.9	30.9	76	24.2	0	1	45	0.00	30.273 
20:45	30.7	30.7	30.7	76	24.0	0	0	---	0.00	30.270 
20:50	30.7	30.7	30.7	77	24.4	0	1	45	0.00	30.270 
20:55	30.6	30.6	30.6	77	24.3	0	2	112	0.00	30.270 
21:00	30.6	30.6	30.6	77	24.3	0	1	112	0.00	30.272 
21:05	30.4	30.4	30.4	77	24.1	0	0	---	0.00	30.272 
21:10	30.3	30.3	30.3	77	24.0	0	1	112	0.00	30.272 
21:15	30.1	30.1	30.1	77	23.8	0	2	112	0.00	30.271 
21:20	30.0	30.0	30.0	77	23.7	0	1	112	0.00	30.271 
21:25	30.0	30.0	30.0	77	23.7	0	2	112	0.00	30.271 
21:30	29.8	29.8	29.8	77	23.5	0	2	112	0.00	30.275 
21:35	29.7	29.7	29.7	77	23.4	0	1	112	0.00	30.275 
21:40	29.5	29.5	29.5	78	23.5	0	0	---	0.00	30.275 
21:45	29.5	29.5	29.5	78	23.5	0	1	112	0.00	30.279 
21:50	29.4	29.4	29.4	78	23.4	0	0	---	0.00	30.279 
21:55	29.3	29.3	29.3	78	23.3	0	1	112	0.00	30.279 
22:00	29.1	29.1	29.1	78	23.1	0	0	---	0.00	30.279 
22:05	29.0	29.0	29.0	78	23.0	0	1	112	0.00	30.279 
22:10	28.8	28.8	28.8	78	22.8	0	1	112	0.00	30.279 
22:15	28.7	28.7	28.7	77	22.4	0	2	112	0.00	30.282 
22:20	28.5	28.5	28.5	77	22.2	0	1	112	0.00	30.282 
22:25	28.4	28.4	28.4	77	22.1	0	0	---	0.00	30.282 
22:30	28.4	28.4	28.4	78	22.4	0	1	112	0.00	30.279 
22:35	28.2	28.2	28.2	78	22.2	0	1	112	0.00	30.279 
22:40	28.1	28.1	28.1	78	22.1	0	1	112	0.00	30.279 
22:45	27.9	27.9	27.9	78	21.9	0	0	---	0.00	30.280 
22:50	27.9	27.9	27.9	79	22.2	0	0	---	0.00	30.280 
22:55	27.6	27.6	27.6	79	22.0	0	0	---	0.00	30.280 
23:00	27.5	27.5	27.5	79	21.9	0	0	---	0.00	30.278 
23:05	27.3	27.3	27.3	79	21.7	0	0	---	0.00	30.278 
23:10	27.2	27.2	27.2	80	21.9	0	0	---	0.00	30.278 
23:15	27.0	27.0	27.0	80	21.7	0	0	---	0.00	30.281 
23:20	26.7	26.7	26.7	80	21.4	0	0	---	0.00	30.281 
23:25	26.6	26.6	26.6	80	21.3	0	0	---	0.00	30.281 
23:30	26.4	26.4	26.4	80	21.1	0	0	---	0.00	30.281 
23:35	26.3	26.3	26.3	81	21.3	0	0	---	0.00	30.281 
23:40	26.1	26.1	26.1	81	21.1	0	0	---	0.00	30.281 
23:45	26.0	26.0	26.0	81	21.0	0	0	---	0.00	30.275 
23:50	25.8	25.8	25.8	81	20.8	0	0	---	0.00	30.275 
23:55	25.6	25.6	25.6	81	20.6	0	0	---	0.00	30.275 

CoCoRaHS
IN-AL-39
A2 Web Hosting
Creative Commons License
GoDaddy
search engine by freefind advanced

loaded 2018-11-17 22:27:02 • last modified 2010-11-18 10:43:29
Privacy PolicyDisclaimer
• wx.awcolley.com is powered by PmWiki v.2002016 •
• all content (unless otherwise noted) © 2018 A W Colley